Time;durP1;ratioP1;P1;durP2;ratioP2;P2;SDS_P1;SDS_P2;PMS_P1;PMS_P2;Temp;Humidity;BMP_temperature;BMP_pressure;BME280_temperature;BME280_humidity;BME280_pressure;Samples;Min_cycle;Max_cycle;Signal;HPM_P1;HPM_P2
2023/12/27 00:02:31;;;;;;;5.88;2.88;;;;;;;;;;6244749;28;20182;-78
2023/12/27 00:05:32;;;;;;;13.45;3.72;;;;;;;;;;6246722;28;20045;-78
2023/12/27 00:08:35;;;;;;;9.55;3.58;;;;;;;;;;6250079;28;20044;-77
2023/12/27 00:11:37;;;;;;;7.65;3.67;;;;;;;;;;6249275;28;20037;-76
2023/12/27 00:14:39;;;;;;;6.80;2.75;;;;;;;;;;6248859;28;20442;-77
2023/12/27 00:17:40;;;;;;;12.10;3.20;;;;;;;;;;6245569;28;20041;-76
2023/12/27 00:20:42;;;;;;;9.38;3.25;;;;;;;;;;6250429;28;20067;-76
2023/12/27 00:23:44;;;;;;;7.88;3.17;;;;;;;;;;6246105;28;20414;-77
2023/12/27 00:26:46;;;;;;;13.05;3.58;;;;;;;;;;6246357;28;20056;-77
2023/12/27 00:29:47;;;;;;;8.05;3.00;;;;;;;;;;6246056;28;20521;-77
2023/12/27 00:32:49;;;;;;;10.27;3.38;;;;;;;;;;6243078;28;20232;-77
2023/12/27 00:35:51;;;;;;;9.55;3.17;;;;;;;;;;6245696;28;20171;-77
2023/12/27 00:38:53;;;;;;;7.20;2.70;;;;;;;;;;6246966;28;20093;-77
2023/12/27 00:41:54;;;;;;;10.45;3.50;;;;;;;;;;6248243;28;20045;-77
2023/12/27 00:44:56;;;;;;;8.75;3.40;;;;;;;;;;6243628;28;20033;-77
2023/12/27 00:47:58;;;;;;;8.60;2.20;;;;;;;;;;6241413;28;20076;-77
2023/12/27 00:51:02;;;;;;;13.60;2.50;;;;;;;;;;6247065;28;20052;-77
2023/12/27 00:54:04;;;;;;;6.82;2.30;;;;;;;;;;6245765;28;20064;-77
2023/12/27 00:57:05;;;;;;;8.93;2.47;;;;;;;;;;6233464;28;20095;-77
2023/12/27 01:00:08;;;;;;;9.02;2.35;;;;;;;;;;6253828;28;20530;-77
2023/12/27 01:03:09;;;;;;;6.43;2.25;;;;;;;;;;6247385;28;20438;-77
2023/12/27 01:06:11;;;;;;;9.45;2.42;;;;;;;;;;6251359;28;20048;-77
2023/12/27 01:09:13;;;;;;;10.30;3.90;;;;;;;;;;6248083;28;20827;-77
2023/12/27 01:12:14;;;;;;;12.32;4.90;;;;;;;;;;6234254;28;20053;-77
2023/12/27 01:15:16;;;;;;;11.93;4.40;;;;;;;;;;6248279;28;20529;-78
2023/12/27 01:18:18;;;;;;;12.80;4.15;;;;;;;;;;6242227;28;20175;-78
2023/12/27 01:21:21;;;;;;;6.35;2.60;;;;;;;;;;6253752;28;20132;-77
2023/12/27 01:24:23;;;;;;;8.60;3.20;;;;;;;;;;6231934;28;20050;-77
2023/12/27 01:27:25;;;;;;;5.93;2.60;;;;;;;;;;6228945;28;20045;-77
2023/12/27 01:30:26;;;;;;;12.52;3.00;;;;;;;;;;6246218;28;20072;-77
2023/12/27 01:33:28;;;;;;;9.45;2.85;;;;;;;;;;6250812;28;20129;-77
2023/12/27 01:36:30;;;;;;;9.30;3.10;;;;;;;;;;6249503;28;20045;-77
2023/12/27 01:39:33;;;;;;;6.38;2.42;;;;;;;;;;6248254;28;20470;-77
2023/12/27 01:42:35;;;;;;;9.95;3.47;;;;;;;;;;6247250;28;20073;-77
2023/12/27 01:45:36;;;;;;;12.20;3.33;;;;;;;;;;6250200;28;20521;-76
2023/12/27 01:48:40;;;;;;;7.95;3.00;;;;;;;;;;6248747;28;20056;-76
2023/12/27 01:51:42;;;;;;;4.68;2.50;;;;;;;;;;6231193;28;20045;-76
2023/12/27 01:54:44;;;;;;;5.97;2.83;;;;;;;;;;6248930;28;20071;-76
2023/12/27 01:57:46;;;;;;;9.75;3.30;;;;;;;;;;6249292;28;20079;-76
2023/12/27 02:00:48;;;;;;;11.82;3.15;;;;;;;;;;6245299;28;20068;-76
2023/12/27 02:03:50;;;;;;;9.07;2.80;;;;;;;;;;6244625;28;20049;-76
2023/12/27 02:06:53;;;;;;;14.73;3.22;;;;;;;;;;6248489;28;20243;-76
2023/12/27 02:09:56;;;;;;;12.73;4.50;;;;;;;;;;6250175;28;20074;-76
2023/12/27 02:13:04;;;;;;;9.20;3.43;;;;;;;;;;6248043;28;20114;-76
2023/12/27 02:16:05;;;;;;;9.77;4.13;;;;;;;;;;6230621;28;20569;-76
2023/12/27 02:19:12;;;;;;;12.35;3.47;;;;;;;;;;6246204;28;20037;-76
2023/12/27 02:22:22;;;;;;;11.57;4.13;;;;;;;;;;6247297;28;20113;-76
2023/12/27 02:25:26;;;;;;;9.20;3.05;;;;;;;;;;6254477;28;20053;-76
2023/12/27 02:28:28;;;;;;;;;;;;;;;;;;6246913;28;20490;-76
2023/12/27 02:31:29;;;;;;;9.85;2.60;;;;;;;;;;6246709;28;20312;-76
2023/12/27 02:34:31;;;;;;;4.97;2.30;;;;;;;;;;6246233;28;20052;-76
2023/12/27 02:37:33;;;;;;;8.23;2.88;;;;;;;;;;6243018;28;20699;-76
2023/12/27 02:40:35;;;;;;;6.47;2.40;;;;;;;;;;6244575;28;20043;-76
2023/12/27 02:43:37;;;;;;;11.27;3.13;;;;;;;;;;6230182;28;20499;-77
2023/12/27 02:46:39;;;;;;;8.15;2.55;;;;;;;;;;6247020;28;20129;-76
2023/12/27 02:49:40;;;;;;;7.55;2.72;;;;;;;;;;6239896;28;20041;-76
2023/12/27 02:52:42;;;;;;;10.77;3.40;;;;;;;;;;6231267;28;20408;-76
2023/12/27 02:55:44;;;;;;;7.00;2.75;;;;;;;;;;6229306;28;20041;-76
2023/12/27 02:58:46;;;;;;;8.85;2.75;;;;;;;;;;6248313;28;20148;-76
2023/12/27 03:01:47;;;;;;;5.25;2.50;;;;;;;;;;6245289;28;20071;-76
2023/12/27 03:04:49;;;;;;;12.52;2.90;;;;;;;;;;6227210;28;20517;-76
2023/12/27 03:07:51;;;;;;;7.80;2.47;;;;;;;;;;6229680;28;20148;-76
2023/12/27 03:10:52;;;;;;;7.10;2.33;;;;;;;;;;6248467;28;20071;-76
2023/12/27 03:13:54;;;;;;;6.75;2.38;;;;;;;;;;6245959;28;20423;-76
2023/12/27 03:16:56;;;;;;;7.32;2.60;;;;;;;;;;6246293;28;20052;-76
2023/12/27 03:19:57;;;;;;;10.73;2.80;;;;;;;;;;6232687;28;20087;-76
2023/12/27 03:22:59;;;;;;;8.43;2.65;;;;;;;;;;6248762;28;20061;-77
2023/12/27 03:26:01;;;;;;;6.70;2.92;;;;;;;;;;6244895;28;20048;-76
2023/12/27 03:29:02;;;;;;;5.35;2.95;;;;;;;;;;6244577;28;20187;-77
2023/12/27 03:32:04;;;;;;;7.13;2.45;;;;;;;;;;6217383;28;20183;-76
2023/12/27 03:35:06;;;;;;;4.65;2.50;;;;;;;;;;6261467;28;20498;-76
2023/12/27 03:38:08;;;;;;;7.15;2.60;;;;;;;;;;6242438;28;20041;-78
2023/12/27 03:41:10;;;;;;;5.47;2.80;;;;;;;;;;6243157;28;20051;-76
2023/12/27 03:44:11;;;;;;;7.53;3.03;;;;;;;;;;6228057;28;20084;-76
2023/12/27 03:47:13;;;;;;;10.55;3.38;;;;;;;;;;6228727;28;20080;-76
2023/12/27 03:50:14;;;;;;;8.25;2.88;;;;;;;;;;6229419;28;20122;-76
2023/12/27 03:53:16;;;;;;;11.02;2.60;;;;;;;;;;6244975;28;20052;-77
2023/12/27 03:56:18;;;;;;;5.75;2.38;;;;;;;;;;6247746;28;20636;-76
2023/12/27 03:59:19;;;;;;;7.97;2.50;;;;;;;;;;6229544;28;20049;-76
2023/12/27 04:02:21;;;;;;;5.13;2.50;;;;;;;;;;6235089;28;20061;-76
2023/12/27 04:05:23;;;;;;;7.75;2.80;;;;;;;;;;6246605;28;20875;-76
2023/12/27 04:08:25;;;;;;;5.43;2.60;;;;;;;;;;6247592;28;20037;-76
2023/12/27 04:11:27;;;;;;;7.47;2.67;;;;;;;;;;6237870;28;20099;-77
2023/12/27 04:14:28;;;;;;;9.73;2.95;;;;;;;;;;6232820;28;20049;-76
2023/12/27 04:17:30;;;;;;;6.30;2.78;;;;;;;;;;6252368;28;20037;-76
2023/12/27 04:20:32;;;;;;;7.30;3.42;;;;;;;;;;6228885;28;20049;-76
2023/12/27 04:23:33;;;;;;;10.32;3.20;;;;;;;;;;6250829;28;20041;-79
2023/12/27 04:26:39;;;;;;;7.88;2.75;;;;;;;;;;6251065;28;20151;-79
2023/12/27 04:29:41;;;;;;;6.25;2.92;;;;;;;;;;6250811;28;20507;-77
2023/12/27 04:32:43;;;;;;;6.32;2.95;;;;;;;;;;6249669;28;20045;-77
2023/12/27 04:35:44;;;;;;;9.23;3.00;;;;;;;;;;6251566;28;20422;-77
2023/12/27 04:38:46;;;;;;;11.57;3.10;;;;;;;;;;6252503;28;20069;-77
2023/12/27 04:41:48;;;;;;;5.78;2.58;;;;;;;;;;6250739;28;20045;-77
2023/12/27 04:44:51;;;;;;;9.63;2.80;;;;;;;;;;6250792;28;20515;-77
2023/12/27 04:47:52;;;;;;;7.78;2.67;;;;;;;;;;6238504;28;20448;-77
2023/12/27 04:50:54;;;;;;;8.07;2.85;;;;;;;;;;6251688;28;20041;-76
2023/12/27 04:53:56;;;;;;;5.97;2.53;;;;;;;;;;6251924;28;20187;-77
2023/12/27 04:56:58;;;;;;;6.70;2.40;;;;;;;;;;6254799;28;20063;-77
2023/12/27 05:00:00;;;;;;;8.35;3.45;;;;;;;;;;6250502;28;20037;-76
2023/12/27 05:03:03;;;;;;;9.90;2.67;;;;;;;;;;6232705;28;20045;-76
2023/12/27 05:06:08;;;;;;;10.68;2.75;;;;;;;;;;6235347;28;20044;-76
2023/12/27 05:09:10;;;;;;;10.05;3.10;;;;;;;;;;6239805;28;20048;-77
2023/12/27 05:12:12;;;;;;;10.30;3.10;;;;;;;;;;6251035;28;20048;-77
2023/12/27 05:15:13;;;;;;;19.05;3.38;;;;;;;;;;6249664;28;20053;-76
2023/12/27 05:18:15;;;;;;;10.35;4.13;;;;;;;;;;6247895;28;20053;-77
2023/12/27 05:21:18;;;;;;;10.95;3.38;;;;;;;;;;6251079;28;20044;-76
2023/12/27 05:24:20;;;;;;;9.25;3.40;;;;;;;;;;6247542;28;20071;-77
2023/12/27 05:27:21;;;;;;;12.65;4.65;;;;;;;;;;6252690;28;20049;-77
2023/12/27 05:30:23;;;;;;;10.38;4.13;;;;;;;;;;6248941;28;20060;-77
2023/12/27 05:33:25;;;;;;;9.00;3.30;;;;;;;;;;6235263;28;20056;-77
2023/12/27 05:36:27;;;;;;;10.68;3.10;;;;;;;;;;6249896;28;20045;-77
2023/12/27 05:39:28;;;;;;;7.47;2.80;;;;;;;;;;6250776;28;20052;-76
2023/12/27 05:42:30;;;;;;;9.35;3.33;;;;;;;;;;6251022;28;20041;-76
2023/12/27 05:45:32;;;;;;;10.38;3.58;;;;;;;;;;6246549;28;20207;-76
2023/12/27 05:48:34;;;;;;;9.20;3.42;;;;;;;;;;6229806;28;20423;-76
2023/12/27 05:51:35;;;;;;;5.85;2.88;;;;;;;;;;6247325;28;20128;-77
2023/12/27 05:54:37;;;;;;;9.10;2.95;;;;;;;;;;6242016;28;20033;-76
2023/12/27 05:57:39;;;;;;;4.53;2.60;;;;;;;;;;6249050;28;20052;-76
2023/12/27 06:00:41;;;;;;;7.88;2.53;;;;;;;;;;6248231;28;20128;-76
2023/12/27 06:03:43;;;;;;;10.00;2.97;;;;;;;;;;6243684;28;20419;-77
2023/12/27 06:06:46;;;;;;;10.93;4.13;;;;;;;;;;6246637;28;20053;-77
2023/12/27 06:09:48;;;;;;;7.47;4.05;;;;;;;;;;6244108;28;20037;-76
2023/12/27 06:12:49;;;;;;;7.47;3.08;;;;;;;;;;6248558;28;20786;-77
2023/12/27 06:15:51;;;;;;;5.55;3.05;;;;;;;;;;6248065;28;20526;-77
2023/12/27 06:18:54;;;;;;;6.63;3.28;;;;;;;;;;6245064;28;20128;-76
2023/12/27 06:21:56;;;;;;;;;;;;;;;;;;6243281;28;20172;-76
2023/12/27 06:24:57;;;;;;;10.82;3.70;;;;;;;;;;6240089;28;20027;-77
2023/12/27 06:27:59;;;;;;;7.75;3.53;;;;;;;;;;6230757;28;20079;-76
2023/12/27 06:31:01;;;;;;;8.40;3.20;;;;;;;;;;6227473;28;20438;-77
2023/12/27 06:34:03;;;;;;;5.93;2.63;;;;;;;;;;6248390;28;20483;-77
2023/12/27 06:37:05;;;;;;;9.05;3.17;;;;;;;;;;6251266;28;20087;-76
2023/12/27 06:40:08;;;;;;;7.28;3.40;;;;;;;;;;6228592;28;20048;-76
2023/12/27 06:43:10;;;;;;;8.30;2.80;;;;;;;;;;6249160;28;20052;-77
2023/12/27 06:46:12;;;;;;;11.85;3.67;;;;;;;;;;6243593;28;20475;-76
2023/12/27 06:49:13;;;;;;;11.40;4.43;;;;;;;;;;6240180;28;20152;-76
2023/12/27 06:52:15;;;;;;;9.80;4.78;;;;;;;;;;6245120;28;20532;-77
2023/12/27 06:55:17;;;;;;;12.35;5.00;;;;;;;;;;6242730;28;20517;-77
2023/12/27 06:58:18;;;;;;;14.07;6.43;;;;;;;;;;6245460;28;20049;-77
2023/12/27 07:01:20;;;;;;;15.98;6.18;;;;;;;;;;6245581;28;20056;-77
2023/12/27 07:04:22;;;;;;;9.18;4.05;;;;;;;;;;6246615;28;20037;-76
2023/12/27 07:07:23;;;;;;;9.95;3.53;;;;;;;;;;6245890;28;20836;-76
2023/12/27 07:10:25;;;;;;;9.07;3.10;;;;;;;;;;6243837;28;20179;-76
2023/12/27 07:13:27;;;;;;;12.20;4.30;;;;;;;;;;6244909;28;20845;-77
2023/12/27 07:16:29;;;;;;;8.02;3.97;;;;;;;;;;6244742;28;20114;-77
2023/12/27 07:19:30;;;;;;;13.20;4.88;;;;;;;;;;6244920;28;20604;-77
2023/12/27 07:22:32;;;;;;;16.58;4.55;;;;;;;;;;6246416;28;20048;-77
2023/12/27 07:25:34;;;;;;;9.20;4.10;;;;;;;;;;6247523;28;20045;-76
2023/12/27 07:28:36;;;;;;;11.18;4.53;;;;;;;;;;6251430;28;20048;-77
2023/12/27 07:31:37;;;;;;;15.05;4.90;;;;;;;;;;6236793;28;20415;-76
2023/12/27 07:34:39;;;;;;;12.35;4.03;;;;;;;;;;6242896;28;20132;-76
2023/12/27 07:37:42;;;;;;;12.02;4.55;;;;;;;;;;6243357;28;20116;-76
2023/12/27 07:40:44;;;;;;;10.57;4.35;;;;;;;;;;6243000;28;20049;-77
2023/12/27 07:43:46;;;;;;;17.50;5.13;;;;;;;;;;6238380;28;20068;-76
2023/12/27 07:46:48;;;;;;;12.77;4.88;;;;;;;;;;6244577;28;20494;-76
2023/12/27 07:49:49;;;;;;;15.48;7.60;;;;;;;;;;6246946;28;20048;-77
2023/12/27 07:52:52;;;;;;;16.70;8.02;;;;;;;;;;6244748;28;20097;-77
2023/12/27 07:55:54;;;;;;;13.65;7.55;;;;;;;;;;6244349;28;20517;-77
2023/12/27 07:58:55;;;;;;;15.05;6.93;;;;;;;;;;6243846;28;20104;-77
2023/12/27 08:01:58;;;;;;;13.48;5.93;;;;;;;;;;6226596;28;20048;-77
2023/12/27 08:04:59;;;;;;;14.07;6.93;;;;;;;;;;6242865;28;20399;-77
2023/12/27 08:08:05;;;;;;;18.58;7.28;;;;;;;;;;6250019;28;20041;-78
2023/12/27 08:11:06;;;;;;;14.75;5.97;;;;;;;;;;6247079;28;20168;-77
2023/12/27 08:14:08;;;;;;;13.10;6.18;;;;;;;;;;6245467;28;20128;-77
2023/12/27 08:17:10;;;;;;;17.23;7.15;;;;;;;;;;6244823;28;21415;-77
2023/12/27 08:20:11;;;;;;;17.48;6.22;;;;;;;;;;6250718;28;20049;-77
2023/12/27 08:23:16;;;;;;;16.98;6.63;;;;;;;;;;6251916;28;20127;-77
2023/12/27 08:26:17;;;;;;;21.85;6.45;;;;;;;;;;6249029;28;20580;-77
2023/12/27 08:29:19;;;;;;;16.80;6.68;;;;;;;;;;6254807;28;20045;-77
2023/12/27 08:32:21;;;;;;;24.75;8.95;;;;;;;;;;6235244;28;20430;-77
2023/12/27 08:35:23;;;;;;;22.17;8.93;;;;;;;;;;6243778;28;20084;-77
2023/12/27 08:38:25;;;;;;;27.27;10.48;;;;;;;;;;6246895;28;20471;-77
2023/12/27 08:41:28;;;;;;;19.40;9.33;;;;;;;;;;6243612;28;20307;-77
2023/12/27 08:44:29;;;;;;;18.98;9.00;;;;;;;;;;6252809;28;20131;-76
2023/12/27 08:47:31;;;;;;;19.98;8.77;;;;;;;;;;6242099;28;20128;-78
2023/12/27 08:50:34;;;;;;;19.85;9.40;;;;;;;;;;6247663;28;20491;-76
2023/12/27 08:53:36;;;;;;;23.33;10.40;;;;;;;;;;6245347;28;20056;-76
2023/12/27 08:56:37;;;;;;;36.55;13.05;;;;;;;;;;6247066;28;20040;-77
2023/12/27 08:59:39;;;;;;;30.77;12.68;;;;;;;;;;6231396;28;20088;-77
2023/12/27 09:02:41;;;;;;;51.85;20.80;;;;;;;;;;6248368;28;20041;-77
2023/12/27 09:05:42;;;;;;;63.60;20.15;;;;;;;;;;6248524;28;20961;-76
2023/12/27 09:08:44;;;;;;;79.10;25.02;;;;;;;;;;6245373;28;20503;-77
2023/12/27 09:11:46;;;;;;;29.63;10.13;;;;;;;;;;6249514;28;20045;-78
2023/12/27 09:14:47;;;;;;;40.63;14.25;;;;;;;;;;6249675;28;20099;-77
2023/12/27 09:17:49;;;;;;;20.73;8.05;;;;;;;;;;6231377;28;20044;-77
2023/12/27 09:20:50;;;;;;;18.10;7.80;;;;;;;;;;6244940;28;20843;-77
2023/12/27 09:23:53;;;;;;;24.27;7.55;;;;;;;;;;6245509;28;20060;-77
2023/12/27 09:26:54;;;;;;;16.10;6.95;;;;;;;;;;6249332;28;20041;-77
2023/12/27 09:29:56;;;;;;;14.23;5.65;;;;;;;;;;6241711;28;20143;-77
2023/12/27 09:32:58;;;;;;;12.82;5.47;;;;;;;;;;6237397;28;20487;-76
2023/12/27 09:35:59;;;;;;;17.90;5.20;;;;;;;;;;6241954;28;20499;-77
2023/12/27 09:39:01;;;;;;;12.13;4.97;;;;;;;;;;6249686;28;20049;-77
2023/12/27 09:42:04;;;;;;;14.23;5.18;;;;;;;;;;6249556;28;20048;-76
2023/12/27 09:45:08;;;;;;;11.80;5.55;;;;;;;;;;6249070;28;20126;-77
2023/12/27 09:48:13;;;;;;;19.55;6.43;;;;;;;;;;6248596;28;20048;-77
2023/12/27 09:51:22;;;;;;;19.70;7.32;;;;;;;;;;6231900;28;20136;-77
2023/12/27 09:54:24;;;;;;;19.10;6.55;;;;;;;;;;6248816;28;20648;-77
2023/12/27 09:57:26;;;;;;;21.83;8.38;;;;;;;;;;6244825;28;20060;-77
2023/12/27 10:00:32;;;;;;;24.58;9.32;;;;;;;;;;6240485;28;20589;-77
2023/12/27 10:03:36;;;;;;;25.40;9.00;;;;;;;;;;6251484;28;20049;-77
2023/12/27 10:06:43;;;;;;;22.73;10.02;;;;;;;;;;6251597;28;20516;-77
2023/12/27 10:09:46;;;;;;;28.90;11.70;;;;;;;;;;6249965;28;20105;-77
2023/12/27 10:12:49;;;;;;;32.15;13.20;;;;;;;;;;6251371;28;20076;-77
2023/12/27 10:15:51;;;;;;;32.92;17.05;;;;;;;;;;6232644;28;20064;-77
2023/12/27 10:18:53;;;;;;;25.40;11.93;;;;;;;;;;6250976;28;20053;-77
2023/12/27 10:21:54;;;;;;;22.65;11.45;;;;;;;;;;6252772;28;20109;-77
2023/12/27 10:24:57;;;;;;;20.55;10.07;;;;;;;;;;6249028;28;20041;-77
2023/12/27 10:27:58;;;;;;;24.55;11.77;;;;;;;;;;6248293;28;20076;-77
2023/12/27 10:31:04;;;;;;;21.73;10.77;;;;;;;;;;6244480;28;20033;-78
2023/12/27 10:34:08;;;;;;;21.73;11.63;;;;;;;;;;6224393;28;20041;-77
2023/12/27 10:37:12;;;;;;;27.92;12.15;;;;;;;;;;6248772;28;20037;-77
2023/12/27 10:40:14;;;;;;;58.15;17.92;;;;;;;;;;6245246;28;20053;-78
2023/12/27 10:43:16;;;;;;;72.47;23.85;;;;;;;;;;6232310;28;20112;-77
2023/12/27 10:46:18;;;;;;;20.10;9.23;;;;;;;;;;6241585;28;20063;-78
2023/12/27 10:49:22;;;;;;;19.70;8.60;;;;;;;;;;6247061;28;20060;-78
2023/12/27 10:52:25;;;;;;;11.55;5.28;;;;;;;;;;6238259;28;20052;-78
2023/12/27 10:55:28;;;;;;;11.63;5.13;;;;;;;;;;6225733;28;20049;-78
2023/12/27 10:58:33;;;;;;;15.98;5.47;;;;;;;;;;6245281;28;20110;-78
2023/12/27 11:01:38;;;;;;;21.20;6.75;;;;;;;;;;6239009;28;20549;-77
2023/12/27 11:04:42;;;;;;;14.88;5.43;;;;;;;;;;6244430;28;20045;-76
2023/12/27 11:07:45;;;;;;;28.90;11.88;;;;;;;;;;6247202;28;20427;-77
2023/12/27 11:10:48;;;;;;;14.27;5.80;;;;;;;;;;6245325;28;20445;-77
2023/12/27 11:13:51;;;;;;;10.88;5.45;;;;;;;;;;6240103;28;20045;-77
2023/12/27 11:16:55;;;;;;;14.45;6.18;;;;;;;;;;6244473;28;20112;-77
2023/12/27 11:19:57;;;;;;;11.45;5.30;;;;;;;;;;6245385;28;20155;-77
2023/12/27 11:22:59;;;;;;;11.65;5.13;;;;;;;;;;6243489;28;20044;-78
2023/12/27 11:26:04;;;;;;;19.85;7.65;;;;;;;;;;6226116;28;20048;-77
2023/12/27 11:29:10;;;;;;;12.60;5.50;;;;;;;;;;6230665;28;20048;-77
2023/12/27 11:32:12;;;;;;;16.67;7.05;;;;;;;;;;6242830;28;20639;-77
2023/12/27 11:35:32;;;;;;;28.33;10.38;;;;;;;;;;6246608;28;20103;-78
2023/12/27 11:38:36;;;;;;;82.47;25.33;;;;;;;;;;6236621;28;20775;-77
2023/12/27 11:41:38;;;;;;;18.60;8.88;;;;;;;;;;6246744;28;20122;-77
2023/12/27 11:44:40;;;;;;;16.20;7.82;;;;;;;;;;6249251;28;20127;-77
2023/12/27 11:47:45;;;;;;;17.50;7.47;;;;;;;;;;6244281;28;20541;-77
2023/12/27 11:50:48;;;;;;;16.05;8.30;;;;;;;;;;6249240;28;20057;-77
2023/12/27 11:53:53;;;;;;;13.95;6.88;;;;;;;;;;6244561;28;20533;-77
2023/12/27 11:56:55;;;;;;;25.50;7.78;;;;;;;;;;6249736;28;20418;-77
2023/12/27 11:59:56;;;;;;;26.70;8.13;;;;;;;;;;6248076;28;20041;-77
2023/12/27 12:03:10;;;;;;;20.58;6.97;;;;;;;;;;6245338;28;20156;-77
2023/12/27 12:06:23;;;;;;;;;;;;;;;;;;6246809;28;20045;-77
2023/12/27 12:09:33;;;;;;;17.27;6.40;;;;;;;;;;6246126;28;20321;-77
2023/12/27 12:12:36;;;;;;;31.70;10.48;;;;;;;;;;6245471;28;20052;-77
2023/12/27 12:15:37;;;;;;;24.87;9.80;;;;;;;;;;6244207;28;20066;-77
2023/12/27 12:18:40;;;;;;;14.93;6.95;;;;;;;;;;6241478;28;20045;-77
2023/12/27 12:21:42;;;;;;;7.10;3.90;;;;;;;;;;6247931;28;20140;-77
2023/12/27 12:24:47;;;;;;;13.13;6.03;;;;;;;;;;6247103;28;20049;-77
2023/12/27 12:27:48;;;;;;;7.90;4.00;;;;;;;;;;6246708;28;20045;-77
2023/12/27 12:30:51;;;;;;;8.70;5.40;;;;;;;;;;6254094;28;20049;-77
2023/12/27 12:33:53;;;;;;;11.73;5.55;;;;;;;;;;6244924;28;20048;-77
2023/12/27 12:36:55;;;;;;;9.73;5.97;;;;;;;;;;6242318;28;20045;-77
2023/12/27 12:39:56;;;;;;;7.00;3.70;;;;;;;;;;6245719;28;20049;-77
2023/12/27 12:42:58;;;;;;;6.38;3.42;;;;;;;;;;6246931;28;20128;-78
2023/12/27 12:46:01;;;;;;;9.32;3.88;;;;;;;;;;6250817;28;20037;-77
2023/12/27 12:49:07;;;;;;;6.32;4.15;;;;;;;;;;6243140;28;20056;-77
2023/12/27 12:52:09;;;;;;;6.90;3.80;;;;;;;;;;6253987;28;20060;-78
2023/12/27 12:55:10;;;;;;;12.20;6.22;;;;;;;;;;6252128;28;20178;-78
2023/12/27 12:58:12;;;;;;;10.63;4.60;;;;;;;;;;6252293;28;20183;-78
2023/12/27 13:01:14;;;;;;;5.30;3.30;;;;;;;;;;6246356;28;20167;-78
2023/12/27 13:04:16;;;;;;;8.67;4.67;;;;;;;;;;6250095;28;20183;-78
2023/12/27 13:07:20;;;;;;;7.80;4.03;;;;;;;;;;6250474;28;20142;-78
2023/12/27 13:10:22;;;;;;;7.63;3.83;;;;;;;;;;6252950;28;20675;-78
2023/12/27 13:13:25;;;;;;;7.43;4.30;;;;;;;;;;6243170;28;20053;-78
2023/12/27 13:16:27;;;;;;;19.15;9.18;;;;;;;;;;6249024;28;20052;-78
2023/12/27 13:19:29;;;;;;;29.40;13.45;;;;;;;;;;6248523;28;20116;-78
2023/12/27 13:22:31;;;;;;;47.15;15.68;;;;;;;;;;6243514;28;20045;-78
2023/12/27 13:25:32;;;;;;;24.83;9.60;;;;;;;;;;6249044;28;20735;-78
2023/12/27 13:28:34;;;;;;;40.33;17.60;;;;;;;;;;6250953;28;20077;-78
2023/12/27 13:31:36;;;;;;;31.65;13.38;;;;;;;;;;6259507;28;20041;-78
2023/12/27 13:34:38;;;;;;;12.90;7.25;;;;;;;;;;6250100;28;21024;-78
2023/12/27 13:37:40;;;;;;;7.10;4.53;;;;;;;;;;6248041;28;20162;-78
2023/12/27 13:40:42;;;;;;;10.45;4.82;;;;;;;;;;6232845;28;20071;-78
2023/12/27 13:43:44;;;;;;;9.25;5.10;;;;;;;;;;6245195;28;20053;-78
2023/12/27 13:46:45;;;;;;;9.02;5.00;;;;;;;;;;6250372;28;20122;-78
2023/12/27 13:49:48;;;;;;;8.32;6.13;;;;;;;;;;6251270;28;20518;-78
2023/12/27 13:52:50;;;;;;;9.95;4.72;;;;;;;;;;6246211;28;20044;-78
2023/12/27 13:55:51;;;;;;;9.73;5.07;;;;;;;;;;6229149;28;20069;-78
2023/12/27 13:58:53;;;;;;;10.13;5.45;;;;;;;;;;6249771;28;20045;-77
2023/12/27 14:01:56;;;;;;;9.55;4.82;;;;;;;;;;6248097;28;20421;-78
2023/12/27 14:04:58;;;;;;;10.75;5.60;;;;;;;;;;6246197;28;20051;-78
2023/12/27 14:08:00;;;;;;;8.43;4.70;;;;;;;;;;6247072;28;20041;-78
2023/12/27 14:11:03;;;;;;;13.57;6.03;;;;;;;;;;6239147;28;20402;-78
2023/12/27 14:14:05;;;;;;;11.20;6.28;;;;;;;;;;6246704;28;20082;-78
2023/12/27 14:17:06;;;;;;;10.73;5.25;;;;;;;;;;6246995;28;20049;-78
2023/12/27 14:20:12;;;;;;;11.20;5.35;;;;;;;;;;6247539;28;21171;-77
2023/12/27 14:23:14;;;;;;;9.52;5.20;;;;;;;;;;6247311;28;20068;-78
2023/12/27 14:26:19;;;;;;;9.52;5.85;;;;;;;;;;6245893;28;20137;-78
2023/12/27 14:29:21;;;;;;;8.90;4.85;;;;;;;;;;6238558;28;20068;-79
2023/12/27 14:32:22;;;;;;;11.77;4.97;;;;;;;;;;6238797;28;20192;-78
2023/12/27 14:35:24;;;;;;;8.77;4.85;;;;;;;;;;6243420;28;20060;-78
2023/12/27 14:38:26;;;;;;;10.60;4.80;;;;;;;;;;6246610;28;20041;-79
2023/12/27 14:41:28;;;;;;;10.38;4.80;;;;;;;;;;6238025;28;20075;-78
2023/12/27 14:44:32;;;;;;;8.97;4.87;;;;;;;;;;6228709;28;20049;-77
2023/12/27 14:47:34;;;;;;;8.45;4.32;;;;;;;;;;6245127;28;20053;-77
2023/12/27 14:50:36;;;;;;;9.88;4.82;;;;;;;;;;6246770;28;20152;-78
2023/12/27 14:53:38;;;;;;;7.90;4.43;;;;;;;;;;6245132;28;20097;-78
2023/12/27 14:56:39;;;;;;;11.20;5.47;;;;;;;;;;6248078;28;20090;-78
2023/12/27 14:59:41;;;;;;;9.98;5.93;;;;;;;;;;6243227;28;20061;-78
2023/12/27 15:02:43;;;;;;;10.43;5.28;;;;;;;;;;6241576;28;20511;-77
2023/12/27 15:05:45;;;;;;;7.35;4.07;;;;;;;;;;6228847;28;20053;-77
2023/12/27 15:08:46;;;;;;;6.75;3.75;;;;;;;;;;6240419;28;20052;-78
2023/12/27 15:11:51;;;;;;;11.80;5.25;;;;;;;;;;6241404;28;20209;-78
2023/12/27 15:14:55;;;;;;;10.32;4.65;;;;;;;;;;6240143;28;20048;-78
2023/12/27 15:17:58;;;;;;;9.80;5.10;;;;;;;;;;6236629;28;20072;-77
2023/12/27 15:21:00;;;;;;;20.58;7.75;;;;;;;;;;6243932;28;20056;-78
2023/12/27 15:24:01;;;;;;;11.68;5.07;;;;;;;;;;6245922;28;20122;-77
2023/12/27 15:27:04;;;;;;;10.73;4.85;;;;;;;;;;6234826;28;20095;-77
2023/12/27 15:30:08;;;;;;;10.63;5.35;;;;;;;;;;6246606;28;20490;-77
2023/12/27 15:33:10;;;;;;;15.57;7.20;;;;;;;;;;6241941;28;20042;-77
2023/12/27 15:36:14;;;;;;;13.23;6.65;;;;;;;;;;6255429;28;20037;-77
2023/12/27 15:39:16;;;;;;;13.68;8.88;;;;;;;;;;6244831;28;20041;-77
2023/12/27 15:42:18;;;;;;;6.95;4.68;;;;;;;;;;6235409;28;20053;-77
2023/12/27 15:45:19;;;;;;;14.65;7.40;;;;;;;;;;6234096;28;20065;-78
2023/12/27 15:48:21;;;;;;;16.83;8.10;;;;;;;;;;6239905;28;20123;-77
2023/12/27 15:51:35;;;;;;;15.02;7.60;;;;;;;;;;6238744;28;20053;-77
2023/12/27 15:54:37;;;;;;;11.05;5.82;;;;;;;;;;6243348;28;20041;-78
2023/12/27 15:57:38;;;;;;;9.15;5.22;;;;;;;;;;6242356;28;20099;-79
2023/12/27 16:00:40;;;;;;;9.60;5.90;;;;;;;;;;6240718;28;20143;-77
2023/12/27 16:03:42;;;;;;;13.95;6.85;;;;;;;;;;6242984;28;21728;-78
2023/12/27 16:06:48;;;;;;;17.92;9.10;;;;;;;;;;6240768;28;20049;-78
2023/12/27 16:09:50;;;;;;;11.80;5.78;;;;;;;;;;6244514;28;20041;-78
2023/12/27 16:12:52;;;;;;;26.10;15.37;;;;;;;;;;6243833;28;20084;-78
2023/12/27 16:15:54;;;;;;;12.80;7.53;;;;;;;;;;6240734;28;20056;-78
2023/12/27 16:18:56;;;;;;;17.33;10.18;;;;;;;;;;6249108;28;20199;-78
2023/12/27 16:21:58;;;;;;;7.87;5.27;;;;;;;;;;6248516;28;20041;-78
2023/12/27 16:25:00;;;;;;;9.45;5.13;;;;;;;;;;6249831;28;20064;-78
2023/12/27 16:28:02;;;;;;;9.70;5.80;;;;;;;;;;6250850;28;20049;-78
2023/12/27 16:31:03;;;;;;;24.63;11.25;;;;;;;;;;6249742;28;20700;-78
2023/12/27 16:34:05;;;;;;;19.25;11.15;;;;;;;;;;6253599;28;20067;-77
2023/12/27 16:37:08;;;;;;;22.10;12.52;;;;;;;;;;6251309;28;20045;-77
2023/12/27 16:40:10;;;;;;;29.15;13.18;;;;;;;;;;6249371;28;20137;-77
2023/12/27 16:43:18;;;;;;;8.98;4.82;;;;;;;;;;6250055;28;20585;-78
2023/12/27 16:46:21;;;;;;;19.55;7.95;;;;;;;;;;6246351;28;20044;-77
2023/12/27 16:49:22;;;;;;;11.88;5.88;;;;;;;;;;6249127;28;20051;-77
2023/12/27 16:52:24;;;;;;;8.45;4.90;;;;;;;;;;6235242;28;20049;-77
2023/12/27 16:55:26;;;;;;;20.40;10.80;;;;;;;;;;6250484;28;20052;-77
2023/12/27 16:58:28;;;;;;;40.50;16.92;;;;;;;;;;6251428;28;20041;-76
2023/12/27 17:01:30;;;;;;;69.55;24.80;;;;;;;;;;6245741;28;20052;-77
2023/12/27 17:04:31;;;;;;;46.70;18.92;;;;;;;;;;6250595;28;20045;-76
2023/12/27 17:07:33;;;;;;;24.33;9.70;;;;;;;;;;6251255;28;20706;-77
2023/12/27 17:10:37;;;;;;;24.60;10.38;;;;;;;;;;6244788;28;20114;-77
2023/12/27 17:13:38;;;;;;;12.25;7.45;;;;;;;;;;6241163;28;20053;-77
2023/12/27 17:16:40;;;;;;;32.58;15.18;;;;;;;;;;6246751;28;20040;-77
2023/12/27 17:19:43;;;;;;;46.17;21.67;;;;;;;;;;6223191;28;20632;-77
2023/12/27 17:22:45;;;;;;;22.45;12.23;;;;;;;;;;6250344;28;20091;-77
2023/12/27 17:25:46;;;;;;;24.00;11.98;;;;;;;;;;6246413;28;20049;-77
2023/12/27 17:28:48;;;;;;;20.17;10.25;;;;;;;;;;6246650;28;20784;-78
2023/12/27 17:31:51;;;;;;;22.05;13.73;;;;;;;;;;6235368;28;20438;-77
2023/12/27 17:34:53;;;;;;;16.90;10.23;;;;;;;;;;6258200;28;20079;-77
2023/12/27 17:37:55;;;;;;;18.42;11.40;;;;;;;;;;6240800;28;20711;-77
2023/12/27 17:40:56;;;;;;;35.22;21.55;;;;;;;;;;6240136;28;20422;-77
2023/12/27 17:43:58;;;;;;;26.02;14.15;;;;;;;;;;6240933;28;20056;-76
2023/12/27 17:47:00;;;;;;;18.60;10.88;;;;;;;;;;6242580;28;20068;-77
2023/12/27 17:50:02;;;;;;;12.65;7.60;;;;;;;;;;6259033;28;20076;-77
2023/12/27 17:53:04;;;;;;;12.80;8.85;;;;;;;;;;6241037;28;20041;-77
2023/12/27 17:56:06;;;;;;;11.27;7.43;;;;;;;;;;6239647;28;20680;-77
2023/12/27 17:59:08;;;;;;;16.17;8.95;;;;;;;;;;6239146;28;20055;-77
2023/12/27 18:02:10;;;;;;;16.55;10.25;;;;;;;;;;6239194;28;20049;-79